createdAt,value
2023-02-22T00:01:07.451Z,4.43
2023-02-22T00:03:35.111Z,4.60
2023-02-22T00:06:05.078Z,4.47
2023-02-22T00:08:35.547Z,3.78
2023-02-22T00:11:08.535Z,3.33
2023-02-22T00:13:37.452Z,3.35
2023-02-22T00:16:05.547Z,3.92
2023-02-22T00:18:32.693Z,3.17
2023-02-22T00:21:01.223Z,3.08
2023-02-22T00:23:30.985Z,3.25
2023-02-22T00:25:59.982Z,2.97
2023-02-22T00:28:27.593Z,2.60
2023-02-22T00:30:55.500Z,3.00
2023-02-22T00:33:23.277Z,2.97
2023-02-22T00:35:50.475Z,3.15
2023-02-22T00:38:19.174Z,2.85
2023-02-22T00:40:46.600Z,2.97
2023-02-22T00:43:14.298Z,3.53
2023-02-22T00:45:42.279Z,3.25
2023-02-22T00:48:10.070Z,3.05
2023-02-22T00:50:37.659Z,3.72
2023-02-22T00:53:07.756Z,3.70
2023-02-22T00:55:37.803Z,2.83
2023-02-22T00:58:06.030Z,3.12
2023-02-22T01:00:39.380Z,3.03
2023-02-22T01:03:10.656Z,3.17
2023-02-22T01:05:40.754Z,3.00
2023-02-22T01:08:09.844Z,3.03
2023-02-22T01:10:38.348Z,2.83
2023-02-22T01:13:09.132Z,3.30
2023-02-22T01:15:39.483Z,3.65
2023-02-22T01:18:07.867Z,2.78
2023-02-22T01:20:35.307Z,3.33
2023-02-22T01:23:06.546Z,3.15
2023-02-22T01:25:35.294Z,3.60
2023-02-22T01:28:05.773Z,3.65
2023-02-22T01:30:35.315Z,3.20
2023-02-22T01:33:05.323Z,3.30
2023-02-22T01:35:36.061Z,3.65
2023-02-22T01:38:03.453Z,3.67
2023-02-22T01:40:36.453Z,3.55
2023-02-22T01:43:17.234Z,3.63
2023-02-22T01:45:55.456Z,3.20
2023-02-22T01:48:25.709Z,4.18
2023-02-22T01:51:03.708Z,3.95
2023-02-22T01:53:39.926Z,3.72
2023-02-22T01:56:07.859Z,3.35
2023-02-22T01:58:38.644Z,3.62
2023-02-22T02:01:07.807Z,3.67
2023-02-22T02:03:38.576Z,3.58
2023-02-22T02:06:12.343Z,3.67
2023-02-22T02:08:42.503Z,4.15
2023-02-22T02:11:10.261Z,3.95
2023-02-22T02:13:37.530Z,4.72
2023-02-22T02:16:05.256Z,4.32
2023-02-22T02:18:32.707Z,3.92
2023-02-22T02:21:55.633Z,4.15
2023-02-22T02:24:41.137Z,5.65
2023-02-22T02:27:11.906Z,5.12
2023-02-22T02:30:25.376Z,4.43
2023-02-22T02:32:56.384Z,4.18
2023-02-22T02:36:13.259Z,4.43
2023-02-22T02:38:44.040Z,4.00
2023-02-22T02:41:26.549Z,4.40
2023-02-22T02:44:02.869Z,4.70
2023-02-22T02:46:34.440Z,4.15
2023-02-22T02:49:06.933Z,4.55
2023-02-22T02:51:38.915Z,4.72
2023-02-22T02:54:07.466Z,4.68
2023-02-22T02:56:35.444Z,4.90
2023-02-22T02:59:02.474Z,4.05
2023-02-22T03:02:24.728Z,4.47
2023-02-22T03:05:10.203Z,4.28
2023-02-22T03:08:07.787Z,4.62
2023-02-22T03:11:17.466Z,4.65
2023-02-22T03:14:02.779Z,4.03
2023-02-22T03:16:50.325Z,4.47
2023-02-22T03:19:38.306Z,3.80
2023-02-22T03:22:16.440Z,3.72
2023-02-22T03:25:22.575Z,3.95
2023-02-22T03:28:02.373Z,3.83
2023-02-22T03:30:39.581Z,4.40
2023-02-22T03:33:15.027Z,4.15
2023-02-22T03:35:56.881Z,3.87
2023-02-22T03:38:29.023Z,4.53
2023-02-22T03:41:01.082Z,4.00
2023-02-22T03:43:50.601Z,3.65
2023-02-22T03:46:19.540Z,4.25
2023-02-22T03:49:03.452Z,3.95
2023-02-22T03:51:31.460Z,3.40
2023-02-22T03:53:59.440Z,4.55
2023-02-22T03:56:35.810Z,4.30
2023-02-22T03:59:09.466Z,4.15
2023-02-22T04:01:36.836Z,4.62
2023-02-22T04:04:05.445Z,3.55
2023-02-22T04:06:32.967Z,4.37
2023-02-22T04:09:02.218Z,3.80
2023-02-22T04:11:29.660Z,3.83
2023-02-22T04:13:57.228Z,3.45
2023-02-22T04:16:24.356Z,3.53
2023-02-22T04:18:51.835Z,3.55
2023-02-22T04:21:19.155Z,3.65
2023-02-22T04:23:46.512Z,3.80
2023-02-22T04:26:14.029Z,3.90
2023-02-22T04:28:41.074Z,4.28
2023-02-22T04:31:08.499Z,3.17
2023-02-22T04:33:36.054Z,3.95
2023-02-22T04:36:03.628Z,4.22
2023-02-22T04:38:31.851Z,4.45
2023-02-22T04:40:59.617Z,4.78
2023-02-22T04:43:27.196Z,4.87
2023-02-22T04:45:56.172Z,3.97
2023-02-22T04:48:23.515Z,4.30
2023-02-22T04:50:52.135Z,4.40
2023-02-22T04:53:19.518Z,5.00
2023-02-22T04:55:46.967Z,4.62
2023-02-22T04:58:14.135Z,5.05
2023-02-22T05:00:41.147Z,4.82
2023-02-22T05:03:09.501Z,4.15
2023-02-22T05:05:36.494Z,5.20
2023-02-22T05:08:03.635Z,5.10
2023-02-22T05:10:30.987Z,5.57
2023-02-22T05:12:58.052Z,5.53
2023-02-22T05:15:25.630Z,5.00
2023-02-22T05:17:53.309Z,5.62
2023-02-22T05:20:25.200Z,5.28
2023-02-22T05:22:52.653Z,7.40
2023-02-22T05:25:20.478Z,5.87
2023-02-22T05:27:57.330Z,6.22
2023-02-22T05:30:28.415Z,6.07
2023-02-22T05:32:55.676Z,6.00
2023-02-22T05:35:23.563Z,5.65
2023-02-22T05:37:51.729Z,5.10
2023-02-22T05:40:24.377Z,5.95
2023-02-22T05:42:53.034Z,6.32
2023-02-22T05:45:22.529Z,6.10
2023-02-22T05:47:50.308Z,6.68
2023-02-22T05:50:19.649Z,6.93
2023-02-22T05:52:48.752Z,7.50
2023-02-22T05:55:18.105Z,7.87
2023-02-22T05:57:45.681Z,9.23
2023-02-22T06:00:23.273Z,8.25
2023-02-22T06:03:09.912Z,7.70
2023-02-22T06:05:39.391Z,8.38
2023-02-22T06:08:07.727Z,8.10
2023-02-22T06:10:34.774Z,7.35
2023-02-22T06:13:03.316Z,7.90
2023-02-22T06:15:30.988Z,7.85
2023-02-22T06:17:58.918Z,6.25
2023-02-22T06:20:28.797Z,5.05
2023-02-22T06:22:58.532Z,5.53
2023-02-22T06:25:28.628Z,5.28
2023-02-22T06:27:55.991Z,4.35
2023-02-22T06:30:25.205Z,5.60
2023-02-22T06:32:52.706Z,6.03
2023-02-22T06:35:20.647Z,5.07
2023-02-22T06:37:48.205Z,6.05
2023-02-22T06:40:15.774Z,5.40
2023-02-22T06:42:43.126Z,5.28
2023-02-22T06:45:10.854Z,5.68
2023-02-22T06:47:41.589Z,4.32
2023-02-22T06:50:31.210Z,5.15
2023-02-22T06:52:58.845Z,4.47
2023-02-22T06:55:32.859Z,4.68
2023-02-22T06:58:01.073Z,5.12
2023-02-22T07:00:31.053Z,5.03
2023-02-22T07:02:59.608Z,5.40
2023-02-22T07:05:27.966Z,6.00
2023-02-22T07:08:02.829Z,5.32
2023-02-22T07:10:32.082Z,5.20
2023-02-22T07:12:59.900Z,4.60
2023-02-22T07:15:29.698Z,5.05
2023-02-22T07:17:57.077Z,5.05
2023-02-22T07:20:26.468Z,5.62
2023-02-22T07:22:53.754Z,5.37
2023-02-22T07:25:21.292Z,5.05
2023-02-22T07:27:48.812Z,5.00
2023-02-22T07:30:26.076Z,4.45
2023-02-22T07:32:55.219Z,5.15
2023-02-22T07:35:28.498Z,5.90
2023-02-22T07:37:56.251Z,5.25
2023-02-22T07:40:25.041Z,5.55
2023-02-22T07:43:00.727Z,5.37
2023-02-22T07:45:33.766Z,5.53
2023-02-22T07:48:03.765Z,7.05
2023-02-22T07:50:32.721Z,6.40
2023-02-22T07:53:03.542Z,6.55
2023-02-22T07:55:32.230Z,6.65
2023-02-22T07:58:01.858Z,5.32
2023-02-22T08:00:34.691Z,5.62
2023-02-22T08:03:04.607Z,5.00
2023-02-22T08:05:32.942Z,5.15
2023-02-22T08:08:00.357Z,5.62
2023-02-22T08:10:28.361Z,5.70
2023-02-22T08:12:56.046Z,4.87
2023-02-22T08:15:30.049Z,5.12
2023-02-22T08:20:26.214Z,5.28
2023-02-22T08:22:54.456Z,5.20
2023-02-22T08:25:25.353Z,5.80
2023-02-22T08:27:52.712Z,4.87
2023-02-22T08:30:22.408Z,6.55
2023-02-22T08:32:50.651Z,6.10
2023-02-22T08:35:22.072Z,5.25
2023-02-22T08:37:52.343Z,5.03
2023-02-22T08:40:23.541Z,5.45
2023-02-22T08:42:50.940Z,5.32
2023-02-22T08:45:18.108Z,5.80
2023-02-22T08:47:45.121Z,5.80
2023-02-22T08:50:20.365Z,7.25
2023-02-22T08:52:47.565Z,5.15
2023-02-22T08:55:15.078Z,5.50
2023-02-22T08:57:42.110Z,5.30
2023-02-22T09:00:09.810Z,4.97
2023-02-22T09:02:37.105Z,5.72
2023-02-22T09:05:05.813Z,5.30
2023-02-22T09:07:32.968Z,5.37
2023-02-22T09:10:00.358Z,4.90
2023-02-22T09:12:27.374Z,4.57
2023-02-22T09:14:54.441Z,4.80
2023-02-22T09:17:21.785Z,5.47
2023-02-22T09:19:48.792Z,5.22
2023-02-22T09:22:15.860Z,5.03
2023-02-22T09:24:43.427Z,5.00
2023-02-22T09:27:12.189Z,6.10
2023-02-22T09:29:39.579Z,4.85
2023-02-22T09:32:07.219Z,4.68
2023-02-22T09:34:35.359Z,4.80
2023-02-22T09:37:02.529Z,4.95
2023-02-22T09:39:29.975Z,4.85
2023-02-22T09:42:15.945Z,6.15
2023-02-22T09:44:55.065Z,5.22
2023-02-22T09:47:32.513Z,4.95
2023-02-22T09:50:15.610Z,4.75
2023-02-22T09:52:55.559Z,5.12
2023-02-22T09:55:47.937Z,4.82
2023-02-22T09:58:33.435Z,5.45
2023-02-22T10:01:33.197Z,4.05
2023-02-22T10:04:20.048Z,4.68
2023-02-22T10:07:06.189Z,4.57
2023-02-22T10:09:38.359Z,5.05
2023-02-22T10:12:12.741Z,4.80
2023-02-22T10:15:05.334Z,4.32
2023-02-22T10:18:10.691Z,5.03
2023-02-22T10:20:42.570Z,4.35
2023-02-22T10:23:19.173Z,4.97
2023-02-22T10:25:52.554Z,4.70
2023-02-22T10:28:24.788Z,4.25
2023-02-22T10:30:59.073Z,6.05
2023-02-22T10:36:03.256Z,4.90
2023-02-22T10:38:33.725Z,5.20
2023-02-22T10:41:09.971Z,5.00
2023-02-22T10:43:38.648Z,5.45
2023-02-22T10:46:08.193Z,5.70
2023-02-22T10:48:38.577Z,5.05
2023-02-22T10:51:08.673Z,6.30
2023-02-22T10:53:38.482Z,7.25
2023-02-22T10:56:21.569Z,6.60
2023-02-22T10:58:48.639Z,7.30
2023-02-22T11:01:22.167Z,7.47
2023-02-22T11:04:07.576Z,7.90
2023-02-22T11:06:35.572Z,7.47
2023-02-22T11:09:10.712Z,7.03
2023-02-22T11:11:41.212Z,6.45
2023-02-22T11:14:10.873Z,7.53
2023-02-22T11:16:52.482Z,7.70
2023-02-22T11:19:28.953Z,8.00
2023-02-22T11:22:10.503Z,8.00
2023-02-22T11:27:43.768Z,8.52
2023-02-22T11:30:35.471Z,9.07
2023-02-22T11:33:23.572Z,9.18
2023-02-22T11:35:54.294Z,7.45
2023-02-22T11:38:30.736Z,8.35
2023-02-22T11:41:29.355Z,8.70
2023-02-22T11:44:21.349Z,7.80
2023-02-22T11:46:49.032Z,8.35
2023-02-22T11:49:17.653Z,7.57
2023-02-22T11:51:56.994Z,8.27
2023-02-22T11:54:29.393Z,7.12
2023-02-22T11:57:16.432Z,7.90
2023-02-22T11:59:46.908Z,7.45
2023-02-22T12:02:18.482Z,8.68
2023-02-22T12:04:55.039Z,8.30
2023-02-22T12:07:34.831Z,7.60
2023-02-22T12:10:19.435Z,7.25
2023-02-22T12:12:55.573Z,7.55
2023-02-22T12:15:31.479Z,7.68
2023-02-22T12:18:15.567Z,7.10
2023-02-22T12:20:51.068Z,4.53
2023-02-22T12:23:30.064Z,5.07
2023-02-22T12:26:05.656Z,5.35
2023-02-22T12:28:39.148Z,4.57
2023-02-22T12:31:25.296Z,5.72
2023-02-22T12:34:04.903Z,3.30
2023-02-22T12:36:44.180Z,3.80
2023-02-22T12:39:50.744Z,4.00
2023-02-22T12:42:47.602Z,4.12
2023-02-22T12:45:41.465Z,4.12
2023-02-22T12:48:33.306Z,4.32
2023-02-22T12:51:16.104Z,3.70
2023-02-22T12:53:55.693Z,3.47
2023-02-22T12:56:36.411Z,4.85
2023-02-22T12:59:17.425Z,3.75
2023-02-22T13:01:50.532Z,4.12
2023-02-22T13:04:21.205Z,3.62
2023-02-22T13:07:19.233Z,3.33
2023-02-22T13:10:03.145Z,3.40
2023-02-22T13:12:55.373Z,4.73
2023-02-22T13:15:47.861Z,3.58
2023-02-22T13:18:29.590Z,3.12
2023-02-22T13:21:09.165Z,3.00
2023-02-22T13:24:12.505Z,3.28
2023-02-22T13:26:53.736Z,2.80
2023-02-22T13:29:30.104Z,2.95
2023-02-22T13:32:15.867Z,3.05
2023-02-22T13:35:02.508Z,3.47
2023-02-22T13:38:04.023Z,3.83
2023-02-22T13:40:52.864Z,4.28
2023-02-22T13:43:35.234Z,4.00
2023-02-22T13:46:33.753Z,3.85
2023-02-22T13:49:17.039Z,3.83
2023-02-22T13:51:58.982Z,4.62
2023-02-22T13:54:37.640Z,4.50
2023-02-22T13:57:19.082Z,3.95
2023-02-22T13:59:47.402Z,4.20
2023-02-22T14:02:55.822Z,4.28
2023-02-22T14:05:42.293Z,3.55
2023-02-22T14:08:31.622Z,3.85
2023-02-22T14:11:02.357Z,4.72
2023-02-22T14:13:33.253Z,4.12
2023-02-22T14:16:00.755Z,5.65
2023-02-22T14:18:38.026Z,4.50
2023-02-22T14:21:14.377Z,5.12
2023-02-22T14:23:44.948Z,4.82
2023-02-22T14:26:30.894Z,4.45
2023-02-22T14:28:59.513Z,6.18
2023-02-22T14:31:36.962Z,6.93
2023-02-22T14:34:04.710Z,4.75
2023-02-22T14:36:53.356Z,4.87
2023-02-22T14:39:43.887Z,4.75
2023-02-22T14:42:14.583Z,5.22
2023-02-22T14:45:03.019Z,4.82
2023-02-22T14:47:39.949Z,5.20
2023-02-22T14:50:17.878Z,4.30
2023-02-22T14:52:48.704Z,4.40
2023-02-22T14:55:22.068Z,4.03
2023-02-22T14:58:46.069Z,3.67
2023-02-22T15:01:49.125Z,3.70
2023-02-22T15:04:31.231Z,3.75
2023-02-22T15:07:01.113Z,4.10
2023-02-22T15:09:34.864Z,4.37
2023-02-22T15:12:05.260Z,4.22
2023-02-22T15:14:38.997Z,4.30
2023-02-22T15:17:22.505Z,4.50
2023-02-22T15:19:50.172Z,4.50
2023-02-22T15:22:27.116Z,4.10
2023-02-22T15:25:03.538Z,4.40
2023-02-22T15:27:34.574Z,4.75
2023-02-22T15:30:06.238Z,4.68
2023-02-22T15:32:36.248Z,4.97
2023-02-22T15:35:23.403Z,4.93
2023-02-22T15:38:01.123Z,4.15
2023-02-22T15:40:33.357Z,7.12
2023-02-22T15:43:08.941Z,4.97
2023-02-22T15:45:42.949Z,5.32
2023-02-22T15:48:11.712Z,6.00
2023-02-22T15:50:39.295Z,6.40
2023-02-22T15:53:23.835Z,7.72
2023-02-22T15:56:00.060Z,7.78
2023-02-22T15:58:30.058Z,7.30
2023-02-22T16:01:07.189Z,6.43
2023-02-22T16:03:51.482Z,5.47
2023-02-22T16:06:30.508Z,5.78
2023-02-22T16:09:01.087Z,5.53
2023-02-22T16:11:34.333Z,5.45
2023-02-22T16:14:05.172Z,5.15
2023-02-22T16:16:35.984Z,5.53
2023-02-22T16:19:28.066Z,5.35
2023-02-22T16:22:02.959Z,5.93
2023-02-22T16:24:33.405Z,5.25
2023-02-22T16:27:17.771Z,5.37
2023-02-22T16:30:02.402Z,5.65
2023-02-22T16:32:30.444Z,5.60
2023-02-22T16:34:57.940Z,5.43
2023-02-22T16:37:25.166Z,6.00
2023-02-22T16:39:52.364Z,5.40
2023-02-22T16:42:24.148Z,5.65
2023-02-22T16:44:52.386Z,6.20
2023-02-22T16:47:20.455Z,5.65
2023-02-22T16:49:52.870Z,5.30
2023-02-22T16:52:20.672Z,5.30
2023-02-22T16:54:48.495Z,7.82
2023-02-22T16:57:21.922Z,8.75
2023-02-22T16:59:52.212Z,7.70
2023-02-22T17:02:20.465Z,8.40
2023-02-22T17:04:49.524Z,8.48
2023-02-22T17:07:29.881Z,10.15
2023-02-22T17:10:00.761Z,11.43
2023-02-22T17:12:30.124Z,13.15
2023-02-22T17:14:57.711Z,12.35
2023-02-22T17:17:26.463Z,12.07
2023-02-22T17:19:54.986Z,11.27
2023-02-22T17:22:22.762Z,12.13
2023-02-22T17:24:49.889Z,11.85
2023-02-22T17:27:17.336Z,12.70
2023-02-22T17:29:45.206Z,12.05
2023-02-22T17:32:13.048Z,12.45
2023-02-22T17:34:40.762Z,11.88
2023-02-22T17:37:08.113Z,11.60
2023-02-22T17:39:35.428Z,12.20
2023-02-22T17:42:03.035Z,13.15
2023-02-22T17:44:30.233Z,11.68
2023-02-22T17:46:57.356Z,11.85
2023-02-22T17:49:24.807Z,11.73
2023-02-22T17:51:53.210Z,11.35
2023-02-22T17:54:20.649Z,11.40
2023-02-22T17:56:48.098Z,11.98
2023-02-22T17:59:15.306Z,12.13
2023-02-22T18:01:44.031Z,13.07
2023-02-22T18:04:11.796Z,13.43
2023-02-22T18:06:40.060Z,13.27
2023-02-22T18:09:10.396Z,14.38
2023-02-22T18:11:39.533Z,14.73
2023-02-22T18:14:10.119Z,15.07
2023-02-22T18:16:39.360Z,12.90
2023-02-22T18:19:06.877Z,15.07
2023-02-22T18:21:34.077Z,14.02
2023-02-22T18:24:02.057Z,15.23
2023-02-22T18:26:29.690Z,14.73
2023-02-22T18:28:56.973Z,14.00
2023-02-22T18:31:24.435Z,12.20
2023-02-22T18:33:52.721Z,13.07
2023-02-22T18:36:23.587Z,12.20
2023-02-22T18:38:53.422Z,13.73
2023-02-22T18:41:25.284Z,13.50
2023-02-22T18:43:55.402Z,13.93
2023-02-22T18:46:24.408Z,14.18
2023-02-22T18:48:54.532Z,13.13
2023-02-22T18:51:22.308Z,13.73
2023-02-22T18:53:57.060Z,13.90
2023-02-22T18:56:29.606Z,11.95
2023-02-22T18:58:59.208Z,12.32
2023-02-22T19:01:27.289Z,16.48
2023-02-22T19:03:55.528Z,13.20
2023-02-22T19:06:23.058Z,18.05
2023-02-22T19:08:50.955Z,13.15
2023-02-22T19:11:21.902Z,12.95
2023-02-22T19:13:54.399Z,15.88
2023-02-22T19:16:24.469Z,15.23
2023-02-22T19:18:57.096Z,16.12
2023-02-22T19:21:26.958Z,15.73
2023-02-22T19:24:00.961Z,14.02
2023-02-22T19:26:29.425Z,14.93
2023-02-22T19:28:58.696Z,16.33
2023-02-22T19:31:33.510Z,16.77
2023-02-22T19:34:04.705Z,16.65
2023-02-22T19:36:32.426Z,14.95
2023-02-22T19:39:02.621Z,14.70
2023-02-22T19:41:31.208Z,14.75
2023-02-22T19:43:59.003Z,13.93
2023-02-22T19:46:26.101Z,14.15
2023-02-22T19:48:55.300Z,13.98
2023-02-22T19:51:27.808Z,14.13
2023-02-22T19:54:00.448Z,15.13
2023-02-22T19:56:28.227Z,14.50
2023-02-22T19:58:57.500Z,13.62
2023-02-22T20:01:30.404Z,15.27
2023-02-22T20:04:00.639Z,14.25
2023-02-22T20:06:31.320Z,17.85
2023-02-22T20:08:58.694Z,16.73
2023-02-22T20:11:26.662Z,13.52
2023-02-22T20:13:57.249Z,13.27
2023-02-22T20:16:24.688Z,12.80
2023-02-22T20:18:52.174Z,11.23
2023-02-22T20:21:23.869Z,13.48
2023-02-22T20:23:51.597Z,12.40
2023-02-22T20:26:24.954Z,12.60
2023-02-22T20:28:53.343Z,11.80
2023-02-22T20:31:21.369Z,12.15
2023-02-22T20:33:53.156Z,11.40
2023-02-22T20:36:23.364Z,10.68
2023-02-22T20:38:58.750Z,10.32
2023-02-22T20:41:32.358Z,10.40
2023-02-22T20:44:01.454Z,10.40
2023-02-22T20:46:31.680Z,9.95
2023-02-22T20:49:01.100Z,8.50
2023-02-22T20:51:29.568Z,7.93
2023-02-22T20:54:01.073Z,7.97
2023-02-22T20:56:30.853Z,8.65
2023-02-22T20:59:02.906Z,7.32
2023-02-22T21:01:31.080Z,8.05
2023-02-22T21:04:02.836Z,7.57
2023-02-22T21:06:30.993Z,8.02
2023-02-22T21:09:00.246Z,7.45
2023-02-22T21:11:30.404Z,6.85
2023-02-22T21:13:58.145Z,7.70
2023-02-22T21:16:35.532Z,6.70
2023-02-22T21:19:07.019Z,7.10
2023-02-22T21:21:35.408Z,7.40
2023-02-22T21:24:02.532Z,6.28
2023-02-22T21:26:34.004Z,7.47
2023-02-22T21:29:04.941Z,7.10
2023-02-22T21:31:34.026Z,6.80
2023-02-22T21:34:01.997Z,7.78
2023-02-22T21:36:29.541Z,7.60
2023-02-22T21:39:01.622Z,7.25
2023-02-22T21:41:31.133Z,7.15
2023-02-22T21:43:59.590Z,7.35
2023-02-22T21:46:31.437Z,6.95
2023-02-22T21:48:59.143Z,6.85
2023-02-22T21:51:31.795Z,6.05
2023-02-22T21:54:02.047Z,7.00
2023-02-22T21:56:32.365Z,7.43
2023-02-22T21:59:06.176Z,6.45
2023-02-22T22:01:36.774Z,6.50
2023-02-22T22:04:05.057Z,5.65
2023-02-22T22:06:34.615Z,7.22
2023-02-22T22:09:04.949Z,6.65
2023-02-22T22:11:32.515Z,5.93
2023-02-22T22:14:00.458Z,7.25
2023-02-22T22:16:29.816Z,8.70
2023-02-22T22:18:57.749Z,6.65
2023-02-22T22:21:25.049Z,6.30
2023-02-22T22:23:56.689Z,6.60
2023-02-22T22:26:25.387Z,6.47
2023-02-22T22:28:55.844Z,7.12
2023-02-22T22:31:26.010Z,7.20
2023-02-22T22:33:54.831Z,7.53
2023-02-22T22:36:23.279Z,7.65
2023-02-22T22:38:52.680Z,6.60
2023-02-22T22:41:21.850Z,7.35
2023-02-22T22:43:48.962Z,6.50
2023-02-22T22:46:17.927Z,7.18
2023-02-22T22:48:47.007Z,5.95
2023-02-22T22:51:18.568Z,6.62
2023-02-22T22:53:48.059Z,7.75
2023-02-22T22:56:21.716Z,6.47
2023-02-22T22:58:56.917Z,6.97
2023-02-22T23:01:33.051Z,7.22
2023-02-22T23:04:03.373Z,6.97
2023-02-22T23:06:33.389Z,7.90
2023-02-22T23:09:11.396Z,6.45
2023-02-22T23:11:45.082Z,7.15
2023-02-22T23:14:19.533Z,6.43
2023-02-22T23:16:51.368Z,6.82
2023-02-22T23:19:19.666Z,6.40
2023-02-22T23:21:48.929Z,6.75
2023-02-22T23:24:19.396Z,6.37
2023-02-22T23:26:50.676Z,6.55
2023-02-22T23:29:20.561Z,7.10
2023-02-22T23:31:49.557Z,6.78
2023-02-22T23:34:18.816Z,6.78
2023-02-22T23:36:46.756Z,6.97
2023-02-22T23:39:16.021Z,7.32
2023-02-22T23:41:43.236Z,7.25
2023-02-22T23:44:13.591Z,6.43
2023-02-22T23:46:41.214Z,7.32
2023-02-22T23:49:09.935Z,6.35
2023-02-22T23:51:44.494Z,6.65
2023-02-22T23:54:14.891Z,6.70
2023-02-22T23:56:56.752Z,6.72
2023-02-22T23:59:26.276Z,6.85
